Kyokusho Maru — JL6605 — position and weather

sailwx.info

Track history (hours):
 
Tides and Currents Weather Stations Pressure Air Temp Water Temp Dewpoint Dewpoint Depression Visibility Wind Speed Wind Dir Waves Ship Positions

Kyokusho Maru

Last reported at 2018-Feb-19 02:25 UTC. Time now 2018-Feb-19 02:40 UTC.
Position N 33°60' E 131°00'.

Length 77 m; draft 3.8 m.

Type: Tanker. MMSI: 431501667.

Date/timePositionNaut miles runAvg speedWind from/ knotsBaromVisibWave heightAir tempDewpointWater temp
2018-Feb-19 02:25N 33°60' E 131°00'0 0.0
2018-Feb-19 01:58N 33°60' E 131°00'0 0.0
2018-Feb-19 01:28N 33°60' E 131°00'0 0.0
2018-Feb-19 00:58N 33°60' E 131°00'0 0.0
2018-Feb-19 00:28N 33°60' E 131°00'0 0.0
2018-Feb-18 23:58N 33°60' E 131°00'0 0.0
2018-Feb-18 23:28N 33°60' E 131°00'0 0.0
2018-Feb-18 22:58N 33°60' E 131°00'0 1.1
2018-Feb-18 22:30N 33°60' E 131°01'2 3.6
2018-Feb-18 21:59N 33°59' E 131°03'0 0.0
2018-Feb-18 21:29N 33°59' E 131°03'0 0.0
2018-Feb-18 20:59N 33°59' E 131°03'0 0.0
2018-Feb-18 20:29N 33°59' E 131°03'0 0.0
2018-Feb-18 19:59N 33°59' E 131°03'0 0.0
2018-Feb-18 19:29N 33°59' E 131°03'0 0.0
2018-Feb-18 18:59N 33°59' E 131°03'0 0.0
2018-Feb-18 18:29N 33°59' E 131°03'0 0.0
2018-Feb-18 17:59N 33°59' E 131°03'0 0.0
2018-Feb-18 17:29N 33°59' E 131°03'0 0.0
2018-Feb-18 16:59N 33°59' E 131°03'0 0.0
2018-Feb-18 16:29N 33°59' E 131°03'0 0.1
2018-Feb-18 15:59N 33°59' E 131°03'0 0.0
2018-Feb-18 15:29N 33°59' E 131°03'0 0.1
2018-Feb-18 14:59N 33°59' E 131°03'0 0.0
2018-Feb-18 14:29N 33°59' E 131°03'0 0.0
2018-Feb-18 13:59N 33°59' E 131°03'0 0.0
2018-Feb-18 13:29N 33°59' E 131°03'0 0.9
2018-Feb-18 13:01N 33°58' E 131°03'611.5
2018-Feb-18 12:30N 33°55' E 131°08'612.1
2018-Feb-18 12:00N 33°52' E 131°15'612.2
2018-Feb-18 11:30N 33°53' E 131°22'612.1
2018-Feb-18 11:00N 33°55' E 131°29'612.2
2018-Feb-18 10:30N 33°57' E 131°36'612.0
2018-Feb-18 10:00N 33°58' E 131°43'510.1
2018-Feb-18 09:29N 34°01' E 131°48'1 0.3
2018-Feb-18 04:31N 34°02' E 131°49'0 0.4
2018-Feb-18 04:30N 34°02' E 131°49'2 4.3
2018-Feb-18 04:00N 34°01' E 131°47'5 9.0
2018-Feb-18 03:30N 33°56' E 131°45'1 1.3
2018-Feb-18 03:00N 33°56' E 131°46'2 3.6
2018-Feb-18 02:30N 33°57' E 131°48'4 1.5
2018-Feb-17 23:45N 34°01' E 131°51'0 0.0
2018-Feb-17 23:22N 34°01' E 131°51'0 1.4
2018-Feb-17 23:01N 34°00' E 131°51'0 0.1
2018-Feb-17 22:19N 34°00' E 131°51'0 0.0
2018-Feb-17 21:49N 34°00' E 131°51'0 0.0
2018-Feb-17 21:25N 34°00' E 131°51'0 0.0
2018-Feb-17 20:43N 34°00' E 131°51'0 0.0
2018-Feb-17 20:19N 34°00' E 131°51'0 0.0
2018-Feb-17 19:43N 34°00' E 131°51'0 0.0
2018-Feb-17 19:19N 34°00' E 131°51'0 0.0
2018-Feb-17 18:55N 34°00' E 131°51'0 0.0
2018-Feb-17 18:19N 34°00' E 131°51'0 0.0
2018-Feb-17 17:37N 34°00' E 131°51'0 0.0
2018-Feb-17 17:25N 34°00' E 131°51'0 0.0
2018-Feb-17 16:58N 34°00' E 131°51'0 0.0
2018-Feb-17 16:25N 34°00' E 131°51'0 0.0
2018-Feb-17 15:49N 34°00' E 131°51'0 0.0
2018-Feb-17 15:19N 34°00' E 131°51'0 0.0
2018-Feb-17 14:19N 34°00' E 131°51'0 0.0
2018-Feb-17 13:55N 34°00' E 131°51'0 0.0
2018-Feb-17 13:13N 34°00' E 131°51'0 0.0
2018-Feb-17 12:43N 34°00' E 131°51'0 0.0
2018-Feb-17 12:13N 34°00' E 131°51'0 0.0
2018-Feb-17 11:55N 34°00' E 131°51'0 0.0
2018-Feb-17 11:25N 34°00' E 131°51'0 0.0
2018-Feb-17 10:43N 34°00' E 131°51'0 0.0
2018-Feb-17 09:13N 34°00' E 131°51'0 0.0
2018-Feb-17 08:43N 34°00' E 131°51'0 0.0
2018-Feb-17 08:14N 34°00' E 131°51'0 1.7
2018-Feb-17 07:57N 33°60' E 131°51'5 9.7
2018-Feb-17 07:29N 33°56' E 131°48'1010.8
2018-Feb-17 06:32N 33°50' E 131°58'311.0
2018-Feb-17 06:13N 33°47' E 132°01'211.0
2018-Feb-17 06:01N 33°46' E 132°03'1212.0
2018-Feb-17 05:02N 33°50' E 132°16'112.2
2018-Feb-17 04:56N 33°50' E 132°17'1611.2
2018-Feb-17 03:33N 34°00' E 132°31'511.9
2018-Feb-17 03:08N 34°03' E 132°26'212.1
2018-Feb-17 02:58N 34°05' E 132°25'510.6
2018-Feb-17 02:28N 34°10' E 132°26'1 0.4
2018-Feb-16 23:44N 34°11' E 132°26'0 0.0
2018-Feb-16 23:22N 34°11' E 132°26'0 1.0
2018-Feb-16 23:00N 34°11' E 132°26'3 6.1
2018-Feb-16 22:28N 34°08' E 132°23'3 2.5
2018-Feb-16 21:03N 34°10' E 132°20'0 0.0
2018-Feb-16 21:00N 34°10' E 132°20'0 0.0
2018-Feb-16 20:09N 34°10' E 132°20'0 0.1
2018-Feb-16 19:48N 34°10' E 132°20'0 0.0
2018-Feb-16 18:06N 34°10' E 132°19'0 0.0
2018-Feb-16 17:54N 34°10' E 132°19'0 0.1
2018-Feb-16 17:15N 34°10' E 132°20'0 0.0
2018-Feb-16 16:54N 34°10' E 132°20'0 0.0
2018-Feb-16 15:54N 34°10' E 132°20'0 0.0
2018-Feb-16 13:36N 34°10' E 132°20'0 0.0
2018-Feb-16 13:30N 34°10' E 132°20'0 0.0
2018-Feb-16 13:00N 34°10' E 132°20'0 0.0
2018-Feb-16 12:21N 34°10' E 132°20'0 0.0
2018-Feb-16 11:54N 34°10' E 132°20'0 0.1
2018-Feb-16 11:30N 34°10' E 132°19'0 0.0
2018-Feb-16 10:39N 34°10' E 132°19'0 0.0
2018-Feb-16 10:15N 34°10' E 132°19'0 1.4
2018-Feb-16 10:00N 34°09' E 132°20'1212.2
2018-Feb-16 09:01N 34°02' E 132°31'0 9.5
2018-Feb-16 09:00N 34°02' E 132°31'612.8
2018-Feb-16 08:30N 34°05' E 132°38'87 3.7
2018-Feb-15 08:49N 34°25' E 134°21'411.9
2018-Feb-15 08:30N 34°26' E 134°25'611.8
2018-Feb-15 08:00N 34°28' E 134°32'611.7
2018-Feb-15 07:30N 34°30' E 134°39'611.4
2018-Feb-15 07:00N 34°33' E 134°45'611.0
2018-Feb-15 06:29N 34°35' E 134°51'5 9.7
2018-Feb-15 06:01N 34°37' E 134°56'4 8.7
2018-Feb-15 05:31N 34°37' E 135°02'5 9.6
2018-Feb-15 05:00N 34°36' E 135°07'611.5
2018-Feb-15 04:31N 34°36' E 135°14'611.3
2018-Feb-15 04:00N 34°37' E 135°21'4 7.7
2018-Feb-15 03:30N 34°39' E 135°25'0 0.0
2018-Feb-15 03:00N 34°39' E 135°25'0 0.0
2018-Feb-15 02:30N 34°39' E 135°25'0 0.0
2018-Feb-15 02:00N 34°39' E 135°25'0 0.0
2018-Feb-15 01:30N 34°39' E 135°25'0 0.0
2018-Feb-15 01:00N 34°39' E 135°25'0 0.0
2018-Feb-15 00:30N 34°39' E 135°25'0 0.0
2018-Feb-15 00:00N 34°39' E 135°25'0 0.0
2018-Feb-14 23:30N 34°39' E 135°25'0 0.0
2018-Feb-14 23:00N 34°39' E 135°25'1 1.5
2018-Feb-14 22:30N 34°39' E 135°24'5 9.8
2018-Feb-14 22:00N 34°36' E 135°19'0 0.9
2018-Feb-14 21:30N 34°36' E 135°19'0 0.0
2018-Feb-14 21:00N 34°36' E 135°19'0 0.0
2018-Feb-14 20:30N 34°36' E 135°19'0 0.0
2018-Feb-14 20:00N 34°36' E 135°19'0 0.1
2018-Feb-14 19:30N 34°36' E 135°19'0 0.0
2018-Feb-14 19:00N 34°36' E 135°19'0 0.0
2018-Feb-14 18:30N 34°36' E 135°19'0 0.0
2018-Feb-14 18:00N 34°36' E 135°19'0 0.0
2018-Feb-14 17:30N 34°36' E 135°19'0 0.0
2018-Feb-14 17:00N 34°36' E 135°19'0 0.1
2018-Feb-14 16:30N 34°36' E 135°19'0 0.0
2018-Feb-14 16:00N 34°36' E 135°19'0 0.1
2018-Feb-14 15:30N 34°36' E 135°19'0 0.0
2018-Feb-14 15:00N 34°36' E 135°19'0 0.0
2018-Feb-14 14:30N 34°36' E 135°19'0 0.0
2018-Feb-14 14:00N 34°36' E 135°19'0 0.0
2018-Feb-14 13:30N 34°36' E 135°19'0 0.0
2018-Feb-14 13:00N 34°36' E 135°19'0 0.0
2018-Feb-14 12:30N 34°36' E 135°19'0 0.1
2018-Feb-14 12:00N 34°36' E 135°19'0 0.1
2018-Feb-14 11:30N 34°36' E 135°19'0 0.1
2018-Feb-14 11:00N 34°36' E 135°19'4 8.8
2018-Feb-14 10:31N 34°35' E 135°14'612.8
2018-Feb-14 10:01N 34°35' E 135°06'611.6
2018-Feb-14 09:31N 34°37' E 134°59'612.6
2018-Feb-14 09:00N 34°35' E 134°52'612.6
2018-Feb-14 08:30N 34°32' E 134°45'713.1
2018-Feb-14 08:00N 34°29' E 134°38'613.0
2018-Feb-14 07:30N 34°27' E 134°31'613.1
2018-Feb-14 07:00N 34°25' E 134°23'912.9
2018-Feb-14 06:17N 34°24' E 134°12'74 3.7
2018-Feb-13 10:15N 34°07' E 132°45'312.4
2018-Feb-13 10:00N 34°06' E 132°41'612.2
2018-Feb-13 09:30N 34°03' E 132°35'710.1
2018-Feb-13 08:50N 34°03' E 132°27'411.2
2018-Feb-13 08:30N 34°07' E 132°25'4 1.7
2018-Feb-13 05:48N 34°11' E 132°26'0 0.0
2018-Feb-13 05:30N 34°11' E 132°26'0 0.1
2018-Feb-13 04:59N 34°11' E 132°26'0 0.9
2018-Feb-13 04:29N 34°10' E 132°26'3 5.7
2018-Feb-13 04:00N 34°08' E 132°24'4 3.5
2018-Feb-13 02:51N 34°10' E 132°20'0 0.0
2018-Feb-13 00:57N 34°10' E 132°20'0 0.1
2018-Feb-13 00:03N 34°10' E 132°20'0 0.1
2018-Feb-12 23:57N 34°10' E 132°20'0 0.0
2018-Feb-12 23:15N 34°10' E 132°20'0 0.0
2018-Feb-12 22:00N 34°10' E 132°20'0 0.0
2018-Feb-12 21:27N 34°10' E 132°20'0 0.0
2018-Feb-12 21:00N 34°10' E 132°20'0 0.1
2018-Feb-12 20:30N 34°10' E 132°20'0 0.0
2018-Feb-12 19:57N 34°10' E 132°20'0 0.0
2018-Feb-12 19:30N 34°10' E 132°20'0 0.0
2018-Feb-12 19:00N 34°10' E 132°20'0 0.0
2018-Feb-12 18:30N 34°10' E 132°20'0 0.0
2018-Feb-12 17:57N 34°10' E 132°20'0 0.0
2018-Feb-12 17:24N 34°10' E 132°20'0 0.0
2018-Feb-12 16:39N 34°10' E 132°20'0 0.0
2018-Feb-12 16:30N 34°10' E 132°20'0 0.0
2018-Feb-12 15:15N 34°10' E 132°20'0 0.0
2018-Feb-12 15:00N 34°10' E 132°20'0 0.0
2018-Feb-12 14:06N 34°10' E 132°20'0 0.0
2018-Feb-12 13:51N 34°10' E 132°20'0 0.0
2018-Feb-12 13:18N 34°10' E 132°20'0 0.0
2018-Feb-12 12:57N 34°10' E 132°20'0 0.0
2018-Feb-12 12:21N 34°10' E 132°20'0 0.0
2018-Feb-12 12:00N 34°10' E 132°20'0 0.0
2018-Feb-12 11:30N 34°10' E 132°20'0 0.0
2018-Feb-12 11:00N 34°10' E 132°20'0 0.0
2018-Feb-12 10:27N 34°10' E 132°20'0 0.0
2018-Feb-12 09:57N 34°10' E 132°20'0 0.0
2018-Feb-12 09:21N 34°10' E 132°20'1 1.9
2018-Feb-12 08:59N 34°09' E 132°20'1111.7
2018-Feb-12 08:01N 34°02' E 132°31'013.9
2018-Feb-12 07:59N 34°02' E 132°31'612.0
2018-Feb-12 07:30N 34°04' E 132°38'5 0.1
2018-Feb-10 04:51N 34°07' E 132°43'411.2
2018-Feb-10 04:30N 34°05' E 132°39'611.2
2018-Feb-10 04:00N 34°02' E 132°33'510.2
2018-Feb-10 03:30N 34°03' E 132°27'610.8
2018-Feb-10 02:58N 34°09' E 132°25'3 5.4
2018-Feb-10 02:30N 34°11' E 132°26'0 0.0
2018-Feb-10 00:14N 34°11' E 132°26'0 0.0
2018-Feb-10 00:00N 34°11' E 132°26'0 0.0
2018-Feb-09 23:30N 34°11' E 132°26'1 1.7
2018-Feb-09 23:00N 34°10' E 132°26'2 8.8
2018-Feb-09 22:44N 34°08' E 132°24'6 0.5
2018-Feb-09 09:30N 34°06' E 132°17'48 9.6
2018-Feb-09 04:31N 33°51' E 131°22'1111.4
2018-Feb-09 03:31N 33°54' E 131°09'  
Track history (hours):
 
Tides and Currents Weather Stations Pressure Air Temp Water Temp Dewpoint Dewpoint Depression Visibility Wind Speed Wind Dir Waves Ship Positions

Kyokusho Maru

Last reported at 2018-Feb-19 02:25 UTC. Time now 2018-Feb-19 02:40 UTC.
Position N 33°60' E 131°00'.

Length 77 m; draft 3.8 m.

Type: Tanker. MMSI: 431501667.

Date/timePositionNaut miles runAvg speedWind from/ knotsBaromVisibWave heightAir tempDewpointWater temp
2018-Feb-19 02:25N 33°60' E 131°00'0 0.0
2018-Feb-19 01:58N 33°60' E 131°00'0 0.0
2018-Feb-19 01:28N 33°60' E 131°00'0 0.0
2018-Feb-19 00:58N 33°60' E 131°00'0 0.0
2018-Feb-19 00:28N 33°60' E 131°00'0 0.0
2018-Feb-18 23:58N 33°60' E 131°00'0 0.0
2018-Feb-18 23:28N 33°60' E 131°00'0 0.0
2018-Feb-18 22:58N 33°60' E 131°00'0 1.1
2018-Feb-18 22:30N 33°60' E 131°01'2 3.6
2018-Feb-18 21:59N 33°59' E 131°03'0 0.0
2018-Feb-18 21:29N 33°59' E 131°03'0 0.0
2018-Feb-18 20:59N 33°59' E 131°03'0 0.0
2018-Feb-18 20:29N 33°59' E 131°03'0 0.0
2018-Feb-18 19:59N 33°59' E 131°03'0 0.0
2018-Feb-18 19:29N 33°59' E 131°03'0 0.0
2018-Feb-18 18:59N 33°59' E 131°03'0 0.0
2018-Feb-18 18:29N 33°59' E 131°03'0 0.0
2018-Feb-18 17:59N 33°59' E 131°03'0 0.0
2018-Feb-18 17:29N 33°59' E 131°03'0 0.0
2018-Feb-18 16:59N 33°59' E 131°03'0 0.0
2018-Feb-18 16:29N 33°59' E 131°03'0 0.1
2018-Feb-18 15:59N 33°59' E 131°03'0 0.0
2018-Feb-18 15:29N 33°59' E 131°03'0 0.1
2018-Feb-18 14:59N 33°59' E 131°03'0 0.0
2018-Feb-18 14:29N 33°59' E 131°03'0 0.0
2018-Feb-18 13:59N 33°59' E 131°03'0 0.0
2018-Feb-18 13:29N 33°59' E 131°03'0 0.9
2018-Feb-18 13:01N 33°58' E 131°03'611.5
2018-Feb-18 12:30N 33°55' E 131°08'612.1
2018-Feb-18 12:00N 33°52' E 131°15'612.2
2018-Feb-18 11:30N 33°53' E 131°22'612.1
2018-Feb-18 11:00N 33°55' E 131°29'612.2
2018-Feb-18 10:30N 33°57' E 131°36'612.0
2018-Feb-18 10:00N 33°58' E 131°43'510.1
2018-Feb-18 09:29N 34°01' E 131°48'1 0.3
2018-Feb-18 04:31N 34°02' E 131°49'0 0.4
2018-Feb-18 04:30N 34°02' E 131°49'2 4.3
2018-Feb-18 04:00N 34°01' E 131°47'5 9.0
2018-Feb-18 03:30N 33°56' E 131°45'1 1.3
2018-Feb-18 03:00N 33°56' E 131°46'2 3.6
2018-Feb-18 02:30N 33°57' E 131°48'4 1.5
2018-Feb-17 23:45N 34°01' E 131°51'0 0.0
2018-Feb-17 23:22N 34°01' E 131°51'0 1.4
2018-Feb-17 23:01N 34°00' E 131°51'0 0.1
2018-Feb-17 22:19N 34°00' E 131°51'0 0.0
2018-Feb-17 21:49N 34°00' E 131°51'0 0.0
2018-Feb-17 21:25N 34°00' E 131°51'0 0.0
2018-Feb-17 20:43N 34°00' E 131°51'0 0.0
2018-Feb-17 20:19N 34°00' E 131°51'0 0.0
2018-Feb-17 19:43N 34°00' E 131°51'0 0.0
2018-Feb-17 19:19N 34°00' E 131°51'0 0.0
2018-Feb-17 18:55N 34°00' E 131°51'0 0.0
2018-Feb-17 18:19N 34°00' E 131°51'0 0.0
2018-Feb-17 17:37N 34°00' E 131°51'0 0.0
2018-Feb-17 17:25N 34°00' E 131°51'0 0.0
2018-Feb-17 16:58N 34°00' E 131°51'0 0.0
2018-Feb-17 16:25N 34°00' E 131°51'0 0.0
2018-Feb-17 15:49N 34°00' E 131°51'0 0.0
2018-Feb-17 15:19N 34°00' E 131°51'0 0.0
2018-Feb-17 14:19N 34°00' E 131°51'0 0.0
2018-Feb-17 13:55N 34°00' E 131°51'0 0.0
2018-Feb-17 13:13N 34°00' E 131°51'0 0.0
2018-Feb-17 12:43N 34°00' E 131°51'0 0.0
2018-Feb-17 12:13N 34°00' E 131°51'0 0.0
2018-Feb-17 11:55N 34°00' E 131°51'0 0.0
2018-Feb-17 11:25N 34°00' E 131°51'0 0.0
2018-Feb-17 10:43N 34°00' E 131°51'0 0.0
2018-Feb-17 09:13N 34°00' E 131°51'0 0.0
2018-Feb-17 08:43N 34°00' E 131°51'0 0.0
2018-Feb-17 08:14N 34°00' E 131°51'0 1.7
2018-Feb-17 07:57N 33°60' E 131°51'5 9.7
2018-Feb-17 07:29N 33°56' E 131°48'1010.8
2018-Feb-17 06:32N 33°50' E 131°58'311.0
2018-Feb-17 06:13N 33°47' E 132°01'211.0
2018-Feb-17 06:01N 33°46' E 132°03'1212.0
2018-Feb-17 05:02N 33°50' E 132°16'112.2
2018-Feb-17 04:56N 33°50' E 132°17'1611.2
2018-Feb-17 03:33N 34°00' E 132°31'511.9
2018-Feb-17 03:08N 34°03' E 132°26'212.1
2018-Feb-17 02:58N 34°05' E 132°25'510.6
2018-Feb-17 02:28N 34°10' E 132°26'1 0.4
2018-Feb-16 23:44N 34°11' E 132°26'0 0.0
2018-Feb-16 23:22N 34°11' E 132°26'0 1.0
2018-Feb-16 23:00N 34°11' E 132°26'3 6.1
2018-Feb-16 22:28N 34°08' E 132°23'3 2.5
2018-Feb-16 21:03N 34°10' E 132°20'0 0.0
2018-Feb-16 21:00N 34°10' E 132°20'0 0.0
2018-Feb-16 20:09N 34°10' E 132°20'0 0.1
2018-Feb-16 19:48N 34°10' E 132°20'0 0.0
2018-Feb-16 18:06N 34°10' E 132°19'0 0.0
2018-Feb-16 17:54N 34°10' E 132°19'0 0.1
2018-Feb-16 17:15N 34°10' E 132°20'0 0.0
2018-Feb-16 16:54N 34°10' E 132°20'0 0.0
2018-Feb-16 15:54N 34°10' E 132°20'0 0.0
2018-Feb-16 13:36N 34°10' E 132°20'0 0.0
2018-Feb-16 13:30N 34°10' E 132°20'0 0.0
2018-Feb-16 13:00N 34°10' E 132°20'0 0.0
2018-Feb-16 12:21N 34°10' E 132°20'0 0.0
2018-Feb-16 11:54N 34°10' E 132°20'0 0.1
2018-Feb-16 11:30N 34°10' E 132°19'0 0.0
2018-Feb-16 10:39N 34°10' E 132°19'0 0.0
2018-Feb-16 10:15N 34°10' E 132°19'0 1.4
2018-Feb-16 10:00N 34°09' E 132°20'1212.2
2018-Feb-16 09:01N 34°02' E 132°31'0 9.5
2018-Feb-16 09:00N 34°02' E 132°31'612.8
2018-Feb-16 08:30N 34°05' E 132°38'87 3.7
2018-Feb-15 08:49N 34°25' E 134°21'411.9
2018-Feb-15 08:30N 34°26' E 134°25'611.8
2018-Feb-15 08:00N 34°28' E 134°32'611.7
2018-Feb-15 07:30N 34°30' E 134°39'611.4
2018-Feb-15 07:00N 34°33' E 134°45'611.0
2018-Feb-15 06:29N 34°35' E 134°51'5 9.7
2018-Feb-15 06:01N 34°37' E 134°56'4 8.7
2018-Feb-15 05:31N 34°37' E 135°02'5 9.6
2018-Feb-15 05:00N 34°36' E 135°07'611.5
2018-Feb-15 04:31N 34°36' E 135°14'611.3
2018-Feb-15 04:00N 34°37' E 135°21'4 7.7
2018-Feb-15 03:30N 34°39' E 135°25'0 0.0
2018-Feb-15 03:00N 34°39' E 135°25'0 0.0
2018-Feb-15 02:30N 34°39' E 135°25'0 0.0
2018-Feb-15 02:00N 34°39' E 135°25'0 0.0
2018-Feb-15 01:30N 34°39' E 135°25'0 0.0
2018-Feb-15 01:00N 34°39' E 135°25'0 0.0
2018-Feb-15 00:30N 34°39' E 135°25'0 0.0
2018-Feb-15 00:00N 34°39' E 135°25'0 0.0
2018-Feb-14 23:30N 34°39' E 135°25'0 0.0
2018-Feb-14 23:00N 34°39' E 135°25'1 1.5
2018-Feb-14 22:30N 34°39' E 135°24'5 9.8
2018-Feb-14 22:00N 34°36' E 135°19'0 0.9
2018-Feb-14 21:30N 34°36' E 135°19'0 0.0
2018-Feb-14 21:00N 34°36' E 135°19'0 0.0
2018-Feb-14 20:30N 34°36' E 135°19'0 0.0
2018-Feb-14 20:00N 34°36' E 135°19'0 0.1
2018-Feb-14 19:30N 34°36' E 135°19'0 0.0
2018-Feb-14 19:00N 34°36' E 135°19'0 0.0
2018-Feb-14 18:30N 34°36' E 135°19'0 0.0
2018-Feb-14 18:00N 34°36' E 135°19'0 0.0
2018-Feb-14 17:30N 34°36' E 135°19'0 0.0
2018-Feb-14 17:00N 34°36' E 135°19'0 0.1
2018-Feb-14 16:30N 34°36' E 135°19'0 0.0
2018-Feb-14 16:00N 34°36' E 135°19'0 0.1
2018-Feb-14 15:30N 34°36' E 135°19'0 0.0
2018-Feb-14 15:00N 34°36' E 135°19'0 0.0
2018-Feb-14 14:30N 34°36' E 135°19'0 0.0
2018-Feb-14 14:00N 34°36' E 135°19'0 0.0
2018-Feb-14 13:30N 34°36' E 135°19'0 0.0
2018-Feb-14 13:00N 34°36' E 135°19'0 0.0
2018-Feb-14 12:30N 34°36' E 135°19'0 0.1
2018-Feb-14 12:00N 34°36' E 135°19'0 0.1
2018-Feb-14 11:30N 34°36' E 135°19'0 0.1
2018-Feb-14 11:00N 34°36' E 135°19'4 8.8
2018-Feb-14 10:31N 34°35' E 135°14'612.8
2018-Feb-14 10:01N 34°35' E 135°06'611.6
2018-Feb-14 09:31N 34°37' E 134°59'612.6
2018-Feb-14 09:00N 34°35' E 134°52'612.6
2018-Feb-14 08:30N 34°32' E 134°45'713.1
2018-Feb-14 08:00N 34°29' E 134°38'613.0
2018-Feb-14 07:30N 34°27' E 134°31'613.1
2018-Feb-14 07:00N 34°25' E 134°23'912.9
2018-Feb-14 06:17N 34°24' E 134°12'74 3.7
2018-Feb-13 10:15N 34°07' E 132°45'312.4
2018-Feb-13 10:00N 34°06' E 132°41'612.2
2018-Feb-13 09:30N 34°03' E 132°35'710.1
2018-Feb-13 08:50N 34°03' E 132°27'411.2
2018-Feb-13 08:30N 34°07' E 132°25'4 1.7
2018-Feb-13 05:48N 34°11' E 132°26'0 0.0
2018-Feb-13 05:30N 34°11' E 132°26'0 0.1
2018-Feb-13 04:59N 34°11' E 132°26'0 0.9
2018-Feb-13 04:29N 34°10' E 132°26'3 5.7
2018-Feb-13 04:00N 34°08' E 132°24'4 3.5
2018-Feb-13 02:51N 34°10' E 132°20'0 0.0
2018-Feb-13 00:57N 34°10' E 132°20'0 0.1
2018-Feb-13 00:03N 34°10' E 132°20'0 0.1
2018-Feb-12 23:57N 34°10' E 132°20'0 0.0
2018-Feb-12 23:15N 34°10' E 132°20'0 0.0
2018-Feb-12 22:00N 34°10' E 132°20'0 0.0
2018-Feb-12 21:27N 34°10' E 132°20'0 0.0
2018-Feb-12 21:00N 34°10' E 132°20'0 0.1
2018-Feb-12 20:30N 34°10' E 132°20'0 0.0
2018-Feb-12 19:57N 34°10' E 132°20'0 0.0
2018-Feb-12 19:30N 34°10' E 132°20'0 0.0
2018-Feb-12 19:00N 34°10' E 132°20'0 0.0
2018-Feb-12 18:30N 34°10' E 132°20'0 0.0
2018-Feb-12 17:57N 34°10' E 132°20'0 0.0
2018-Feb-12 17:24N 34°10' E 132°20'0 0.0
2018-Feb-12 16:39N 34°10' E 132°20'0 0.0
2018-Feb-12 16:30N 34°10' E 132°20'0 0.0
2018-Feb-12 15:15N 34°10' E 132°20'0 0.0
2018-Feb-12 15:00N 34°10' E 132°20'0 0.0
2018-Feb-12 14:06N 34°10' E 132°20'0 0.0
2018-Feb-12 13:51N 34°10' E 132°20'0 0.0
2018-Feb-12 13:18N 34°10' E 132°20'0 0.0
2018-Feb-12 12:57N 34°10' E 132°20'0 0.0
2018-Feb-12 12:21N 34°10' E 132°20'0 0.0
2018-Feb-12 12:00N 34°10' E 132°20'0 0.0
2018-Feb-12 11:30N 34°10' E 132°20'0 0.0
2018-Feb-12 11:00N 34°10' E 132°20'0 0.0
2018-Feb-12 10:27N 34°10' E 132°20'0 0.0
2018-Feb-12 09:57N 34°10' E 132°20'0 0.0
2018-Feb-12 09:21N 34°10' E 132°20'1 1.9
2018-Feb-12 08:59N 34°09' E 132°20'1111.7
2018-Feb-12 08:01N 34°02' E 132°31'013.9
2018-Feb-12 07:59N 34°02' E 132°31'612.0
2018-Feb-12 07:30N 34°04' E 132°38'5 0.1
2018-Feb-10 04:51N 34°07' E 132°43'411.2
2018-Feb-10 04:30N 34°05' E 132°39'611.2
2018-Feb-10 04:00N 34°02' E 132°33'510.2
2018-Feb-10 03:30N 34°03' E 132°27'610.8
2018-Feb-10 02:58N 34°09' E 132°25'3 5.4
2018-Feb-10 02:30N 34°11' E 132°26'0 0.0
2018-Feb-10 00:14N 34°11' E 132°26'0 0.0
2018-Feb-10 00:00N 34°11' E 132°26'0 0.0
2018-Feb-09 23:30N 34°11' E 132°26'1 1.7
2018-Feb-09 23:00N 34°10' E 132°26'2 8.8
2018-Feb-09 22:44N 34°08' E 132°24'6 0.5
2018-Feb-09 09:30N 34°06' E 132°17'48 9.6
2018-Feb-09 04:31N 33°51' E 131°22'1111.4
2018-Feb-09 03:31N 33°54' E 131°09'  

Dump ship's entire track history